createdAt,value
2023-03-02T00:02:02.006Z,72.17
2023-03-02T00:04:33.354Z,71.80
2023-03-02T00:07:01.986Z,72.10
2023-03-02T00:09:29.311Z,72.22
2023-03-02T00:11:55.833Z,71.91
2023-03-02T00:14:22.376Z,71.98
2023-03-02T00:16:48.863Z,72.22
2023-03-02T00:19:17.232Z,71.98
2023-03-02T00:21:43.933Z,72.25
2023-03-02T00:24:10.564Z,72.00
2023-03-02T00:26:37.169Z,71.91
2023-03-02T00:29:03.797Z,72.06
2023-03-02T00:31:30.537Z,72.07
2023-03-02T00:33:57.040Z,72.62
2023-03-02T00:36:23.952Z,72.30
2023-03-02T00:38:52.120Z,72.86
2023-03-02T00:41:21.553Z,72.89
2023-03-02T00:43:48.506Z,72.70
2023-03-02T00:46:16.694Z,72.57
2023-03-02T00:48:43.494Z,72.12
2023-03-02T00:51:11.029Z,71.96
2023-03-02T00:53:38.112Z,72.05
2023-03-02T00:56:05.516Z,71.75
2023-03-02T00:58:35.725Z,72.00
2023-03-02T01:01:07.250Z,71.96
2023-03-02T01:03:36.642Z,71.76
2023-03-02T01:06:03.550Z,71.41
2023-03-02T01:08:30.514Z,71.23
2023-03-02T01:10:57.251Z,71.13
2023-03-02T01:13:23.701Z,70.79
2023-03-02T01:15:59.343Z,71.06
2023-03-02T01:18:25.868Z,71.27
2023-03-02T01:21:00.044Z,72.20
2023-03-02T01:23:26.589Z,72.75
2023-03-02T01:25:53.651Z,72.22
2023-03-02T01:28:20.442Z,72.83
2023-03-02T01:30:47.192Z,73.14
2023-03-02T01:33:13.664Z,73.52
2023-03-02T01:35:40.200Z,73.91
2023-03-02T01:38:06.828Z,73.70
2023-03-02T01:40:33.853Z,74.42
2023-03-02T01:43:04.751Z,74.56
2023-03-02T01:45:43.596Z,75.07
2023-03-02T01:48:12.470Z,74.77
2023-03-02T01:50:39.381Z,74.86
2023-03-02T01:53:06.188Z,74.87
2023-03-02T01:55:33.946Z,75.66
2023-03-02T01:58:02.159Z,76.02
2023-03-02T02:00:31.033Z,75.87
2023-03-02T02:03:08.915Z,76.08
2023-03-02T02:05:40.495Z,76.81
2023-03-02T02:08:07.129Z,76.44
2023-03-02T02:10:34.214Z,76.96
2023-03-02T02:13:01.360Z,76.76
2023-03-02T02:15:27.878Z,76.58
2023-03-02T02:17:55.628Z,77.17
2023-03-02T02:20:28.426Z,76.64
2023-03-02T02:22:54.840Z,76.54
2023-03-02T02:25:40.242Z,76.48
2023-03-02T02:28:10.956Z,77.85
2023-03-02T02:30:38.150Z,78.30
2023-03-02T02:33:05.707Z,78.17
2023-03-02T02:35:34.861Z,78.51
2023-03-02T02:38:04.248Z,79.20
2023-03-02T02:40:49.386Z,79.21
2023-03-02T02:43:19.181Z,80.07
2023-03-02T02:45:46.851Z,79.75
2023-03-02T02:48:19.496Z,80.09
2023-03-02T02:50:46.852Z,80.19
2023-03-02T02:53:16.020Z,79.78
2023-03-02T02:55:43.564Z,79.75
2023-03-02T02:58:27.609Z,79.98
2023-03-02T03:00:55.219Z,80.07
2023-03-02T03:03:30.767Z,79.79
2023-03-02T03:06:02.245Z,80.30
2023-03-02T03:08:44.044Z,80.18
2023-03-02T03:11:19.291Z,80.65
2023-03-02T03:13:46.955Z,80.82
2023-03-02T03:16:15.186Z,80.56
2023-03-02T03:18:49.274Z,81.11
2023-03-02T03:21:18.303Z,80.81
2023-03-02T03:23:45.238Z,81.41
2023-03-02T03:26:11.979Z,81.73
2023-03-02T03:28:38.546Z,81.83
2023-03-02T03:31:05.372Z,82.06
2023-03-02T03:33:32.076Z,82.44
2023-03-02T03:36:00.734Z,81.93
2023-03-02T03:38:27.446Z,81.92
2023-03-02T03:40:54.057Z,82.21
2023-03-02T03:43:20.633Z,82.13
2023-03-02T03:45:52.121Z,82.58
2023-03-02T03:48:19.404Z,82.15
2023-03-02T03:50:47.583Z,82.73
2023-03-02T03:53:14.320Z,82.88
2023-03-02T03:55:40.942Z,82.48
2023-03-02T03:58:07.710Z,82.77
2023-03-02T04:00:34.350Z,82.81
2023-03-02T04:03:06.604Z,83.13
2023-03-02T04:05:33.338Z,82.44
2023-03-02T04:08:02.239Z,82.26
2023-03-02T04:10:29.857Z,81.83
2023-03-02T04:12:56.705Z,82.08
2023-03-02T04:15:23.323Z,82.43
2023-03-02T04:17:51.833Z,83.13
2023-03-02T04:20:21.582Z,83.25
2023-03-02T04:22:52.071Z,83.50
2023-03-02T04:25:21.222Z,83.44
2023-03-02T04:27:50.323Z,83.37
2023-03-02T04:30:19.778Z,83.79
2023-03-02T04:32:46.411Z,83.63
2023-03-02T04:35:13.704Z,83.59
2023-03-02T04:37:41.248Z,83.91
2023-03-02T04:40:09.530Z,83.55
2023-03-02T04:42:36.229Z,83.17
2023-03-02T04:45:02.802Z,83.10
2023-03-02T04:47:29.399Z,83.29
2023-03-02T04:49:57.393Z,82.79
2023-03-02T04:52:25.201Z,83.50
2023-03-02T04:54:52.196Z,83.20
2023-03-02T04:57:18.796Z,83.26
2023-03-02T04:59:45.381Z,82.87
2023-03-02T05:02:12.032Z,82.64
2023-03-02T05:04:40.562Z,82.81
2023-03-02T05:07:07.227Z,83.31
2023-03-02T05:09:33.745Z,83.76
2023-03-02T05:12:01.074Z,83.73
2023-03-02T05:14:28.290Z,83.80
2023-03-02T05:16:54.797Z,83.55
2023-03-02T05:19:21.484Z,83.66
2023-03-02T05:21:48.152Z,83.68
2023-03-02T05:24:14.634Z,84.00
2023-03-02T05:26:41.652Z,83.97
2023-03-02T05:29:08.886Z,83.53
2023-03-02T05:31:39.874Z,83.57
2023-03-02T05:34:07.421Z,83.34
2023-03-02T05:36:34.344Z,83.51
2023-03-02T05:39:01.029Z,83.42
2023-03-02T05:41:28.041Z,84.12
2023-03-02T05:43:54.652Z,84.24
2023-03-02T05:46:22.157Z,83.95
2023-03-02T05:48:48.665Z,83.99
2023-03-02T05:51:15.725Z,83.60
2023-03-02T05:53:42.281Z,83.65
2023-03-02T05:56:08.937Z,82.81
2023-03-02T05:58:35.751Z,81.16
2023-03-02T06:01:02.442Z,79.20
2023-03-02T06:03:29.116Z,78.18
2023-03-02T06:05:55.751Z,75.90
2023-03-02T06:08:22.188Z,74.47
2023-03-02T06:10:50.722Z,73.21
2023-03-02T06:13:17.234Z,71.77
2023-03-02T06:15:43.947Z,70.07
2023-03-02T06:18:12.503Z,69.20
2023-03-02T06:20:39.556Z,67.42
2023-03-02T06:23:06.086Z,66.48
2023-03-02T06:25:32.631Z,65.87
2023-03-02T06:27:59.090Z,64.62
2023-03-02T06:30:25.871Z,63.61
2023-03-02T06:32:52.468Z,63.21
2023-03-02T06:35:19.474Z,63.11
2023-03-02T06:37:46.147Z,61.05
2023-03-02T06:40:13.931Z,59.08
2023-03-02T06:42:41.854Z,57.82
2023-03-02T06:45:09.092Z,57.37
2023-03-02T06:47:35.686Z,57.58
2023-03-02T06:50:02.312Z,57.38
2023-03-02T06:52:28.802Z,55.99
2023-03-02T06:54:55.461Z,55.79
2023-03-02T06:57:21.976Z,55.13
2023-03-02T06:59:48.523Z,53.25
2023-03-02T07:02:15.005Z,53.05
2023-03-02T07:04:41.540Z,52.44
2023-03-02T07:07:07.994Z,53.41
2023-03-02T07:09:34.499Z,53.21
2023-03-02T07:12:00.994Z,53.89
2023-03-02T07:14:27.446Z,54.84
2023-03-02T07:16:54.126Z,51.86
2023-03-02T07:19:20.716Z,50.94
2023-03-02T07:21:47.162Z,50.59
2023-03-02T07:24:13.626Z,50.68
2023-03-02T07:26:40.158Z,51.11
2023-03-02T07:29:06.776Z,52.43
2023-03-02T07:31:33.611Z,51.96
2023-03-02T07:34:00.312Z,50.51
2023-03-02T07:36:26.809Z,49.93
2023-03-02T07:38:53.320Z,50.62
2023-03-02T07:41:19.798Z,50.42
2023-03-02T07:43:46.298Z,50.49
2023-03-02T07:46:12.856Z,49.29
2023-03-02T07:48:39.361Z,47.88
2023-03-02T07:51:06.576Z,46.15
2023-03-02T07:53:33.077Z,48.20
2023-03-02T07:56:02.230Z,48.56
2023-03-02T07:58:28.796Z,46.92
2023-03-02T08:00:55.295Z,47.08
2023-03-02T08:03:21.771Z,48.12
2023-03-02T08:05:48.233Z,48.72
2023-03-02T08:08:14.722Z,50.60
2023-03-02T08:10:41.306Z,48.99
2023-03-02T08:13:07.816Z,48.56
2023-03-02T08:15:34.418Z,52.05
2023-03-02T08:18:00.913Z,49.97
2023-03-02T08:20:27.391Z,48.63
2023-03-02T08:22:54.022Z,46.67
2023-03-02T08:25:20.607Z,49.64
2023-03-02T08:27:47.110Z,47.51
2023-03-02T08:30:13.759Z,49.49
2023-03-02T08:32:40.549Z,47.64
2023-03-02T08:35:07.386Z,47.00
2023-03-02T08:37:34.068Z,47.75
2023-03-02T08:40:00.517Z,50.41
2023-03-02T08:42:27.099Z,48.58
2023-03-02T08:44:53.544Z,49.55
2023-03-02T08:47:20.312Z,49.24
2023-03-02T08:49:48.168Z,49.07
2023-03-02T08:52:15.447Z,46.21
2023-03-02T08:54:42.240Z,44.06
2023-03-02T08:57:10.599Z,44.38
2023-03-02T08:59:37.200Z,45.76
2023-03-02T09:02:03.746Z,44.04
2023-03-02T09:04:30.463Z,44.87
2023-03-02T09:06:57.031Z,45.52
2023-03-02T09:09:23.744Z,44.29
2023-03-02T09:11:50.203Z,47.10
2023-03-02T09:14:16.836Z,47.24
2023-03-02T09:16:43.528Z,47.11
2023-03-02T09:19:10.439Z,46.61
2023-03-02T09:21:37.067Z,44.65
2023-03-02T09:24:03.727Z,43.90
2023-03-02T09:26:30.333Z,43.54
2023-03-02T09:28:57.176Z,43.48
2023-03-02T09:31:24.312Z,45.23
2023-03-02T09:33:50.877Z,46.23
2023-03-02T09:36:21.915Z,45.12
2023-03-02T09:38:48.760Z,46.51
2023-03-02T09:41:18.199Z,45.89
2023-03-02T09:43:45.090Z,48.05
2023-03-02T09:46:30.196Z,48.16
2023-03-02T09:49:15.579Z,45.86
2023-03-02T09:51:42.040Z,46.41
2023-03-02T09:54:13.418Z,45.81
2023-03-02T09:56:43.808Z,46.01
2023-03-02T09:59:29.125Z,44.51
2023-03-02T10:02:01.830Z,46.38
2023-03-02T10:04:31.154Z,46.42
2023-03-02T10:07:01.470Z,45.33
2023-03-02T10:09:28.157Z,46.30
2023-03-02T10:12:04.333Z,47.34
2023-03-02T10:14:33.403Z,46.50
2023-03-02T10:17:17.263Z,46.94
2023-03-02T10:19:44.906Z,46.66
2023-03-02T10:22:24.259Z,47.18
2023-03-02T10:25:11.025Z,47.89
2023-03-02T10:27:42.767Z,48.32
2023-03-02T10:30:27.688Z,47.02
2023-03-02T10:32:56.512Z,47.83
2023-03-02T10:35:24.434Z,46.28
2023-03-02T10:38:02.288Z,47.34
2023-03-02T10:40:28.772Z,47.38
2023-03-02T10:42:56.497Z,47.70
2023-03-02T10:45:30.858Z,46.02
2023-03-02T10:48:05.116Z,46.00
2023-03-02T10:50:31.919Z,44.61
2023-03-02T10:53:01.065Z,44.16
2023-03-02T10:55:27.887Z,43.42
2023-03-02T10:58:03.255Z,44.02
2023-03-02T11:00:30.508Z,45.23
2023-03-02T11:02:58.869Z,44.12
2023-03-02T11:05:30.739Z,45.25
2023-03-02T11:07:58.799Z,44.81
2023-03-02T11:10:45.552Z,44.20
2023-03-02T11:13:17.272Z,42.96
2023-03-02T11:15:46.418Z,42.48
2023-03-02T11:18:31.884Z,44.15
2023-03-02T11:21:03.910Z,41.54
2023-03-02T11:23:40.947Z,42.58
2023-03-02T11:26:18.089Z,41.98
2023-03-02T11:28:48.184Z,43.49
2023-03-02T11:31:21.718Z,43.04
2023-03-02T11:34:15.661Z,41.59
2023-03-02T11:37:02.653Z,42.37
2023-03-02T11:39:41.118Z,41.86
2023-03-02T11:42:18.536Z,40.52
2023-03-02T11:44:46.091Z,42.87
2023-03-02T11:47:12.849Z,42.01
2023-03-02T11:49:44.038Z,41.48
2023-03-02T11:52:21.491Z,41.48
2023-03-02T11:54:59.392Z,41.17
2023-03-02T11:57:29.636Z,40.08
2023-03-02T11:59:58.417Z,40.70
2023-03-02T12:02:25.507Z,40.13
2023-03-02T12:05:02.196Z,39.00
2023-03-02T12:07:28.745Z,39.34
2023-03-02T12:09:57.959Z,39.74
2023-03-02T12:12:33.685Z,40.06
2023-03-02T12:15:00.643Z,38.61
2023-03-02T12:17:27.119Z,38.62
2023-03-02T12:20:08.949Z,37.69
2023-03-02T12:22:36.062Z,38.82
2023-03-02T12:25:22.798Z,38.05
2023-03-02T12:27:50.588Z,38.41
2023-03-02T12:30:18.729Z,39.35
2023-03-02T12:32:58.199Z,39.74
2023-03-02T12:35:25.766Z,39.52
2023-03-02T12:37:53.902Z,38.49
2023-03-02T12:40:20.470Z,38.60
2023-03-02T12:42:49.957Z,37.76
2023-03-02T12:45:25.579Z,37.43
2023-03-02T12:47:58.994Z,38.03
2023-03-02T12:50:27.383Z,38.58
2023-03-02T12:53:16.836Z,39.55
2023-03-02T12:55:43.413Z,40.62
2023-03-02T12:58:22.382Z,39.46
2023-03-02T13:00:50.370Z,39.65
2023-03-02T13:03:17.013Z,39.67
2023-03-02T13:05:43.528Z,38.84
2023-03-02T13:08:18.767Z,38.73
2023-03-02T13:11:01.171Z,38.71
2023-03-02T13:13:41.452Z,39.20
2023-03-02T13:16:20.402Z,38.51
2023-03-02T13:18:47.205Z,38.68
2023-03-02T13:21:14.944Z,39.39
2023-03-02T13:23:47.897Z,39.00
2023-03-02T13:26:40.521Z,38.84
2023-03-02T13:29:19.190Z,40.03
2023-03-02T13:31:45.774Z,39.50
2023-03-02T13:34:23.164Z,39.31
2023-03-02T13:36:50.129Z,38.89
2023-03-02T13:39:21.035Z,38.48
2023-03-02T13:41:55.053Z,39.60
2023-03-02T13:44:26.191Z,37.91
2023-03-02T13:46:52.721Z,38.16
2023-03-02T13:49:29.744Z,38.56
2023-03-02T13:51:58.706Z,39.00
2023-03-02T13:54:27.810Z,38.75
2023-03-02T13:56:55.129Z,38.92
2023-03-02T13:59:22.088Z,38.76
2023-03-02T14:01:48.803Z,39.47
2023-03-02T14:04:21.526Z,39.08
2023-03-02T14:06:48.112Z,39.02
2023-03-02T14:09:14.978Z,40.16
2023-03-02T14:11:43.789Z,39.21
2023-03-02T14:14:16.058Z,39.49
2023-03-02T14:16:42.611Z,39.02
2023-03-02T14:19:11.235Z,39.53
2023-03-02T14:21:37.778Z,41.05
2023-03-02T14:24:04.622Z,39.83
2023-03-02T14:26:31.246Z,39.93
2023-03-02T14:29:05.426Z,39.29
2023-03-02T14:31:33.096Z,39.97
2023-03-02T14:33:59.688Z,39.68
2023-03-02T14:36:28.724Z,39.91
2023-03-02T14:39:00.584Z,39.92
2023-03-02T14:41:27.689Z,39.70
2023-03-02T14:43:54.209Z,39.66
2023-03-02T14:46:20.789Z,40.16
2023-03-02T14:48:47.462Z,39.66
2023-03-02T14:51:28.007Z,40.43
2023-03-02T14:53:55.476Z,39.83
2023-03-02T14:56:25.286Z,40.15
2023-03-02T14:58:52.943Z,40.58
2023-03-02T15:01:20.078Z,40.23
2023-03-02T15:03:46.750Z,39.91
2023-03-02T15:06:23.487Z,40.40
2023-03-02T15:08:50.227Z,40.13
2023-03-02T15:11:16.690Z,40.39
2023-03-02T15:13:45.430Z,40.60
2023-03-02T15:16:12.505Z,40.63
2023-03-02T15:18:39.383Z,40.89
2023-03-02T15:21:06.195Z,40.93
2023-03-02T15:23:33.034Z,40.81
2023-03-02T15:26:00.243Z,40.77
2023-03-02T15:28:27.168Z,41.54
2023-03-02T15:30:53.762Z,41.25
2023-03-02T15:33:20.257Z,40.77
2023-03-02T15:35:50.917Z,41.26
2023-03-02T15:38:17.503Z,41.29
2023-03-02T15:40:43.998Z,42.00
2023-03-02T15:43:10.745Z,42.06
2023-03-02T15:45:37.301Z,42.37
2023-03-02T15:48:04.169Z,42.94
2023-03-02T15:50:30.737Z,42.89
2023-03-02T15:52:58.331Z,42.65
2023-03-02T15:55:24.942Z,42.67
2023-03-02T15:57:51.514Z,42.84
2023-03-02T16:00:18.266Z,42.90
2023-03-02T16:02:44.882Z,43.21
2023-03-02T16:05:11.553Z,43.67
2023-03-02T16:07:38.069Z,43.58
2023-03-02T16:10:04.848Z,44.04
2023-03-02T16:12:31.630Z,43.91
2023-03-02T16:14:58.106Z,44.61
2023-03-02T16:17:24.700Z,44.75
2023-03-02T16:19:51.160Z,45.40
2023-03-02T16:22:17.628Z,45.94
2023-03-02T16:24:44.388Z,45.23
2023-03-02T16:27:10.919Z,45.36
2023-03-02T16:29:37.586Z,45.71
2023-03-02T16:32:04.335Z,46.18
2023-03-02T16:34:30.890Z,46.63
2023-03-02T16:36:57.437Z,46.61
2023-03-02T16:39:24.623Z,46.60
2023-03-02T16:41:51.535Z,47.18
2023-03-02T16:44:18.461Z,48.08
2023-03-02T16:46:45.359Z,48.16
2023-03-02T16:49:12.591Z,48.32
2023-03-02T16:51:39.535Z,48.03
2023-03-02T16:54:06.179Z,48.58
2023-03-02T16:56:32.912Z,48.30
2023-03-02T16:59:00.409Z,48.16
2023-03-02T17:01:27.200Z,48.42
2023-03-02T17:03:53.946Z,48.86
2023-03-02T17:06:22.296Z,49.19
2023-03-02T17:08:49.003Z,49.99
2023-03-02T17:11:15.580Z,49.88
2023-03-02T17:13:42.229Z,51.45
2023-03-02T17:16:08.830Z,51.59
2023-03-02T17:18:35.544Z,51.70
2023-03-02T17:21:03.285Z,51.70
2023-03-02T17:23:31.248Z,51.70
2023-03-02T17:25:57.763Z,51.86
2023-03-02T17:28:24.283Z,52.15
2023-03-02T17:30:50.959Z,52.67
2023-03-02T17:33:18.244Z,53.61
2023-03-02T17:35:46.137Z,53.95
2023-03-02T17:38:12.876Z,53.92
2023-03-02T17:40:39.404Z,54.34
2023-03-02T17:43:06.074Z,54.82
2023-03-02T17:45:32.595Z,54.91
2023-03-02T17:47:59.420Z,55.30
2023-03-02T17:50:27.106Z,55.31
2023-03-02T17:52:54.217Z,55.53
2023-03-02T17:55:20.748Z,55.87
2023-03-02T17:57:47.301Z,56.50
2023-03-02T18:00:15.098Z,56.73
2023-03-02T18:02:41.686Z,56.82
2023-03-02T18:05:10.093Z,57.04
2023-03-02T18:07:36.992Z,57.38
2023-03-02T18:10:03.756Z,57.53
2023-03-02T18:12:30.355Z,58.33
2023-03-02T18:14:56.803Z,58.70
2023-03-02T18:17:23.392Z,59.25
2023-03-02T18:19:49.977Z,59.63
2023-03-02T18:22:16.504Z,60.10
2023-03-02T18:24:43.037Z,60.81
2023-03-02T18:27:09.673Z,61.26
2023-03-02T18:29:36.167Z,61.68
2023-03-02T18:32:02.725Z,62.32
2023-03-02T18:34:29.336Z,62.90
2023-03-02T18:36:56.039Z,63.00
2023-03-02T18:39:22.573Z,63.06
2023-03-02T18:41:49.618Z,63.66
2023-03-02T18:44:16.233Z,64.64
2023-03-02T18:46:42.783Z,65.20
2023-03-02T18:49:09.307Z,65.56
2023-03-02T18:51:35.896Z,66.04
2023-03-02T18:54:02.436Z,66.21
2023-03-02T18:56:29.060Z,66.29
2023-03-02T18:58:55.554Z,66.48
2023-03-02T19:01:22.322Z,66.44
2023-03-02T19:03:49.125Z,67.10
2023-03-02T19:06:16.471Z,67.34
2023-03-02T19:08:43.137Z,66.75
2023-03-02T19:11:09.660Z,66.95
2023-03-02T19:13:36.250Z,67.73
2023-03-02T19:16:03.027Z,68.00
2023-03-02T19:18:30.390Z,67.92
2023-03-02T19:20:57.790Z,68.00
2023-03-02T19:23:24.313Z,68.29
2023-03-02T19:25:51.453Z,68.47
2023-03-02T19:28:18.073Z,68.29
2023-03-02T19:30:44.610Z,68.89
2023-03-02T19:33:11.330Z,69.09
2023-03-02T19:35:38.454Z,69.66
2023-03-02T19:38:05.749Z,69.55
2023-03-02T19:40:32.385Z,69.56
2023-03-02T19:42:58.981Z,69.78
2023-03-02T19:45:30.023Z,69.39
2023-03-02T19:47:57.808Z,69.87
2023-03-02T19:50:25.160Z,69.72
2023-03-02T19:52:52.462Z,70.26
2023-03-02T19:55:20.096Z,70.59
2023-03-02T19:57:51.260Z,70.81
2023-03-02T20:00:19.353Z,70.88
2023-03-02T20:02:47.200Z,71.19
2023-03-02T20:05:14.130Z,71.43
2023-03-02T20:07:41.851Z,71.52
2023-03-02T20:10:09.272Z,71.84
2023-03-02T20:12:36.853Z,71.54
2023-03-02T20:15:04.686Z,72.22
2023-03-02T20:17:31.378Z,71.47
2023-03-02T20:19:58.605Z,72.02
2023-03-02T20:22:25.873Z,71.97
2023-03-02T20:24:52.356Z,71.93
2023-03-02T20:27:18.907Z,72.22
2023-03-02T20:29:45.543Z,71.91
2023-03-02T20:32:12.664Z,71.73
2023-03-02T20:34:40.292Z,71.51
2023-03-02T20:37:07.039Z,71.32
2023-03-02T20:39:35.221Z,71.68
2023-03-02T20:42:02.376Z,71.92
2023-03-02T20:44:31.050Z,72.67
2023-03-02T20:46:58.340Z,73.00
2023-03-02T20:49:26.014Z,72.86
2023-03-02T20:51:54.803Z,73.81
2023-03-02T20:54:26.952Z,74.47
2023-03-02T20:56:54.019Z,73.12
2023-03-02T20:59:21.289Z,73.77
2023-03-02T21:01:48.039Z,74.10
2023-03-02T21:04:14.685Z,74.49
2023-03-02T21:06:41.534Z,75.23
2023-03-02T21:09:09.450Z,74.76
2023-03-02T21:11:37.012Z,74.80
2023-03-02T21:14:07.102Z,75.08
2023-03-02T21:16:36.510Z,75.29
2023-03-02T21:19:04.644Z,75.33
2023-03-02T21:21:41.107Z,74.54
2023-03-02T21:24:09.597Z,73.35
2023-03-02T21:26:36.902Z,74.75
2023-03-02T21:29:05.232Z,75.04
2023-03-02T21:31:32.166Z,75.10
2023-03-02T21:34:00.293Z,74.72
2023-03-02T21:36:26.923Z,75.15
2023-03-02T21:38:53.567Z,75.91
2023-03-02T21:41:20.459Z,76.63
2023-03-02T21:43:47.763Z,76.29
2023-03-02T21:46:15.468Z,76.60
2023-03-02T21:48:42.280Z,76.52
2023-03-02T21:51:10.668Z,76.63
2023-03-02T21:53:37.203Z,77.03
2023-03-02T21:56:03.930Z,76.74
2023-03-02T21:58:32.216Z,76.35
2023-03-02T22:00:58.969Z,76.44
2023-03-02T22:03:25.774Z,77.11
2023-03-02T22:05:52.362Z,78.39
2023-03-02T22:08:19.625Z,78.31
2023-03-02T22:10:47.752Z,77.92
2023-03-02T22:13:26.341Z,77.64
2023-03-02T22:16:11.400Z,77.56
2023-03-02T22:18:38.275Z,77.71
2023-03-02T22:21:31.311Z,77.30
2023-03-02T22:24:10.531Z,77.65
2023-03-02T22:26:39.151Z,77.64
2023-03-02T22:29:08.705Z,77.50
2023-03-02T22:31:37.672Z,77.00
2023-03-02T22:34:05.933Z,77.45
2023-03-02T22:36:32.415Z,77.87
2023-03-02T22:39:05.793Z,79.04
2023-03-02T22:41:32.336Z,79.76
2023-03-02T22:43:59.890Z,80.19
2023-03-02T22:46:26.825Z,80.02
2023-03-02T22:48:53.525Z,80.76
2023-03-02T22:51:21.807Z,80.38
2023-03-02T22:53:55.290Z,80.23
2023-03-02T22:56:28.374Z,80.44
2023-03-02T22:58:55.865Z,79.88
2023-03-02T23:01:37.104Z,79.49
2023-03-02T23:04:18.592Z,79.64
2023-03-02T23:06:50.127Z,79.17
2023-03-02T23:09:18.472Z,79.15
2023-03-02T23:11:45.130Z,79.53
2023-03-02T23:14:19.699Z,79.62
2023-03-02T23:16:48.130Z,80.07
2023-03-02T23:19:14.712Z,80.02
2023-03-02T23:21:44.504Z,80.66
2023-03-02T23:24:11.117Z,80.78
2023-03-02T23:26:37.654Z,81.07
2023-03-02T23:29:04.340Z,81.68
2023-03-02T23:31:31.389Z,81.71
2023-03-02T23:33:58.446Z,81.78
2023-03-02T23:36:26.211Z,81.58
2023-03-02T23:38:53.031Z,81.91
2023-03-02T23:41:19.631Z,81.95
2023-03-02T23:43:46.161Z,82.00
2023-03-02T23:46:14.285Z,82.35
2023-03-02T23:48:42.006Z,82.31
2023-03-02T23:51:08.659Z,83.00
2023-03-02T23:53:35.306Z,83.12
2023-03-02T23:56:02.321Z,82.67
2023-03-02T23:58:28.833Z,82.69
